Time;durP1;ratioP1;P1;durP2;ratioP2;P2;SDS_P1;SDS_P2;PMS_P1;PMS_P2;Temp;Humidity;BMP_temperature;BMP_pressure;BME280_temperature;BME280_humidity;BME280_pressure;Samples;Min_cycle;Max_cycle;Signal;HPM_P1;HPM_P2
2023/08/16 00:01:26;;;;;;;2.33;2.10;;;;;;;;;;5095511;28;20340;-71
2023/08/16 00:03:54;;;;;;;2.97;2.15;;;;;;;;;;5100927;28;20648;-70
2023/08/16 00:06:22;;;;;;;3.15;1.98;;;;;;;;;;5100678;28;20213;-71
2023/08/16 00:08:57;;;;;;;3.55;2.00;;;;;;;;;;5100810;28;20300;-71
2023/08/16 00:11:30;;;;;;;1.80;1.70;;;;;;;;;;5100740;28;20236;-71
2023/08/16 00:13:58;;;;;;;2.20;2.00;;;;;;;;;;5100181;28;20212;-71
2023/08/16 00:16:25;;;;;;;2.53;1.88;;;;;;;;;;5100106;28;20218;-71
2023/08/16 00:18:53;;;;;;;4.45;2.00;;;;;;;;;;5100675;28;20262;-71
2023/08/16 00:21:21;;;;;;;1.75;1.65;;;;;;;;;;5100490;28;20242;-71
2023/08/16 00:23:49;;;;;;;2.33;2.13;;;;;;;;;;5100196;28;20232;-71
2023/08/16 00:26:16;;;;;;;2.72;1.50;;;;;;;;;;5100220;28;20254;-71
2023/08/16 00:28:47;;;;;;;2.42;1.75;;;;;;;;;;5099253;28;20221;-71
2023/08/16 00:31:15;;;;;;;2.40;2.20;;;;;;;;;;5099286;28;20225;-71
2023/08/16 00:33:43;;;;;;;2.28;2.17;;;;;;;;;;5097970;28;20200;-70
2023/08/16 00:36:12;;;;;;;1.63;1.52;;;;;;;;;;5096888;28;20237;-70
2023/08/16 00:38:42;;;;;;;2.22;2.00;;;;;;;;;;5098065;28;20337;-70
2023/08/16 00:41:10;;;;;;;1.98;1.80;;;;;;;;;;5099349;28;20225;-71
2023/08/16 00:43:38;;;;;;;2.47;1.85;;;;;;;;;;5098406;28;20215;-70
2023/08/16 00:46:08;;;;;;;3.10;2.08;;;;;;;;;;5098861;28;20204;-70
2023/08/16 00:48:37;;;;;;;3.13;1.98;;;;;;;;;;5100090;28;20280;-70
2023/08/16 00:51:06;;;;;;;3.65;2.30;;;;;;;;;;5098408;28;20281;-69
2023/08/16 00:53:34;;;;;;;2.60;2.10;;;;;;;;;;5098284;28;20198;-68
2023/08/16 00:56:02;;;;;;;2.45;1.85;;;;;;;;;;5098847;28;20205;-71
2023/08/16 00:58:30;;;;;;;3.40;2.25;;;;;;;;;;5098912;28;20227;-69
2023/08/16 01:00:58;;;;;;;2.92;1.80;;;;;;;;;;5094002;28;20648;-69
2023/08/16 01:03:31;;;;;;;2.58;2.03;;;;;;;;;;5098825;28;20208;-70
2023/08/16 01:05:59;;;;;;;1.90;1.80;;;;;;;;;;5098946;28;20204;-70
2023/08/16 01:08:27;;;;;;;2.00;1.90;;;;;;;;;;5097428;28;20213;-71
2023/08/16 01:10:57;;;;;;;2.88;2.10;;;;;;;;;;5097587;28;20318;-69
2023/08/16 01:13:27;;;;;;;3.20;2.05;;;;;;;;;;5098474;28;20205;-70
2023/08/16 01:15:56;;;;;;;4.75;2.33;;;;;;;;;;5097398;28;20682;-70
2023/08/16 01:18:25;;;;;;;2.28;2.13;;;;;;;;;;5099554;28;20237;-71
2023/08/16 01:20:55;;;;;;;2.53;2.15;;;;;;;;;;5099343;28;20315;-69
2023/08/16 01:23:28;;;;;;;2.63;2.03;;;;;;;;;;5096722;28;20202;-70
2023/08/16 01:26:02;;;;;;;5.57;2.17;;;;;;;;;;5098555;28;20207;-70
2023/08/16 01:28:32;;;;;;;3.65;2.30;;;;;;;;;;5092635;28;20222;-70
2023/08/16 01:31:02;;;;;;;2.30;2.20;;;;;;;;;;5099567;28;20219;-69
2023/08/16 01:33:29;;;;;;;3.35;2.60;;;;;;;;;;5094213;28;20205;-70
2023/08/16 01:35:57;;;;;;;2.88;2.33;;;;;;;;;;5098428;28;20212;-69
2023/08/16 01:38:25;;;;;;;3.30;2.05;;;;;;;;;;5096913;28;20198;-69
2023/08/16 01:40:55;;;;;;;3.63;2.13;;;;;;;;;;5097277;28;20235;-70
2023/08/16 01:43:23;;;;;;;2.45;2.03;;;;;;;;;;5093038;28;20289;-70
2023/08/16 01:45:53;;;;;;;1.90;1.80;;;;;;;;;;5091773;28;20202;-70
2023/08/16 01:48:22;;;;;;;3.60;2.00;;;;;;;;;;5096169;28;20222;-69
2023/08/16 01:50:50;;;;;;;2.38;2.17;;;;;;;;;;5096582;28;20227;-70
2023/08/16 01:53:19;;;;;;;2.38;2.03;;;;;;;;;;5096763;28;20207;-71
2023/08/16 01:55:46;;;;;;;3.97;2.60;;;;;;;;;;5098870;28;20208;-71
2023/08/16 01:58:19;;;;;;;2.45;2.25;;;;;;;;;;5097364;28;20201;-70
2023/08/16 02:00:47;;;;;;;3.78;2.40;;;;;;;;;;5098127;28;20251;-71
2023/08/16 02:03:16;;;;;;;2.63;2.42;;;;;;;;;;5098527;28;20201;-71
2023/08/16 02:05:44;;;;;;;4.45;2.40;;;;;;;;;;5098541;28;20205;-69
2023/08/16 02:08:16;;;;;;;2.72;2.15;;;;;;;;;;5097455;28;20201;-70
2023/08/16 02:10:46;;;;;;;2.20;2.00;;;;;;;;;;5098560;28;20720;-70
2023/08/16 02:13:14;;;;;;;3.00;2.17;;;;;;;;;;5098059;28;20210;-69
2023/08/16 02:15:42;;;;;;;2.38;2.17;;;;;;;;;;5097974;28;20283;-68
2023/08/16 02:18:12;;;;;;;2.30;2.10;;;;;;;;;;5098546;28;20220;-69
2023/08/16 02:20:42;;;;;;;2.20;2.00;;;;;;;;;;5098362;28;20226;-69
2023/08/16 02:23:09;;;;;;;3.03;2.13;;;;;;;;;;5098091;28;20577;-69
2023/08/16 02:25:39;;;;;;;6.45;2.13;;;;;;;;;;5097984;28;20201;-69
2023/08/16 02:28:07;;;;;;;4.80;2.33;;;;;;;;;;5097924;28;20209;-70
2023/08/16 02:30:35;;;;;;;2.80;2.13;;;;;;;;;;5095725;28;20223;-69
2023/08/16 02:33:03;;;;;;;3.47;2.27;;;;;;;;;;5089977;28;20631;-69
2023/08/16 02:35:31;;;;;;;2.92;2.20;;;;;;;;;;5097162;28;20202;-68
2023/08/16 02:38:06;;;;;;;3.37;2.23;;;;;;;;;;5096668;28;20204;-68
2023/08/16 02:40:36;;;;;;;4.33;2.20;;;;;;;;;;5097056;28;20279;-68
2023/08/16 02:43:05;;;;;;;2.60;2.30;;;;;;;;;;5095836;28;20238;-70
2023/08/16 02:45:35;;;;;;;2.45;2.25;;;;;;;;;;5094080;28;20239;-70
2023/08/16 02:48:06;;;;;;;3.17;1.80;;;;;;;;;;5094686;28;20201;-69
2023/08/16 02:50:37;;;;;;;2.40;2.20;;;;;;;;;;5092717;28;20221;-70
2023/08/16 02:53:08;;;;;;;2.30;2.10;;;;;;;;;;5094646;28;20202;-70
2023/08/16 02:55:36;;;;;;;2.85;2.00;;;;;;;;;;5097028;28;20201;-70
2023/08/16 02:58:04;;;;;;;3.07;2.17;;;;;;;;;;5093568;28;20293;-70
2023/08/16 03:00:32;;;;;;;3.97;1.93;;;;;;;;;;5093760;28;20655;-69
2023/08/16 03:03:00;;;;;;;6.23;2.17;;;;;;;;;;5093117;28;20246;-69
2023/08/16 03:05:28;;;;;;;2.60;2.10;;;;;;;;;;5090848;28;20201;-68
2023/08/16 03:07:58;;;;;;;2.47;2.27;;;;;;;;;;5095440;28;20197;-69
2023/08/16 03:10:28;;;;;;;2.00;1.90;;;;;;;;;;5094805;28;20293;-69
2023/08/16 03:12:56;;;;;;;4.40;2.17;;;;;;;;;;5096883;28;20209;-70
2023/08/16 03:15:26;;;;;;;2.40;2.20;;;;;;;;;;5096874;28;20204;-70
2023/08/16 03:17:54;;;;;;;2.40;2.20;;;;;;;;;;5094931;28;20201;-69
2023/08/16 03:20:22;;;;;;;2.13;1.93;;;;;;;;;;5095446;28;20265;-70
2023/08/16 03:22:49;;;;;;;3.60;2.30;;;;;;;;;;5095900;28;20205;-70
2023/08/16 03:25:17;;;;;;;3.63;2.20;;;;;;;;;;5100837;28;20272;-69
2023/08/16 03:27:46;;;;;;;3.03;2.40;;;;;;;;;;5098789;28;20246;-70
2023/08/16 03:30:16;;;;;;;4.17;2.90;;;;;;;;;;5100611;28;20262;-70
2023/08/16 03:32:44;;;;;;;2.53;2.30;;;;;;;;;;5099100;28;20238;-71
2023/08/16 03:35:12;;;;;;;4.80;2.40;;;;;;;;;;5100687;28;20203;-71
2023/08/16 03:37:39;;;;;;;7.13;2.80;;;;;;;;;;5100448;28;20290;-70
2023/08/16 03:40:09;;;;;;;4.53;2.67;;;;;;;;;;5098755;28;20249;-70
2023/08/16 03:42:37;;;;;;;3.73;2.80;;;;;;;;;;5099738;28;20205;-71
2023/08/16 03:45:07;;;;;;;5.07;2.70;;;;;;;;;;5097597;28;20238;-70
2023/08/16 03:47:34;;;;;;;4.20;3.23;;;;;;;;;;5099536;28;20240;-70
2023/08/16 03:50:04;;;;;;;5.50;3.00;;;;;;;;;;5100967;28;20243;-70
2023/08/16 03:52:32;;;;;;;2.77;2.30;;;;;;;;;;5099630;28;20696;-70
2023/08/16 03:55:00;;;;;;;3.47;2.67;;;;;;;;;;5099795;28;20571;-70
2023/08/16 03:57:28;;;;;;;4.97;2.77;;;;;;;;;;5099805;28;20284;-71
2023/08/16 03:59:55;;;;;;;3.83;2.87;;;;;;;;;;5100617;28;20236;-71
2023/08/16 04:02:25;;;;;;;5.47;2.90;;;;;;;;;;5100695;28;20242;-71
2023/08/16 04:04:53;;;;;;;3.10;2.90;;;;;;;;;;5100688;28;20208;-71
2023/08/16 04:07:21;;;;;;;3.30;2.97;;;;;;;;;;5100884;28;20231;-70
2023/08/16 04:09:49;;;;;;;4.97;2.83;;;;;;;;;;5100763;28;20234;-71
2023/08/16 04:12:18;;;;;;;3.17;2.87;;;;;;;;;;5099938;28;20557;-70
2023/08/16 04:14:46;;;;;;;3.50;3.07;;;;;;;;;;5099742;28;20218;-70
2023/08/16 04:17:14;;;;;;;3.20;2.90;;;;;;;;;;5098978;28;20231;-71
2023/08/16 04:19:43;;;;;;;4.57;2.63;;;;;;;;;;5098740;28;20205;-71
2023/08/16 04:22:11;;;;;;;3.13;2.93;;;;;;;;;;5099140;28;20201;-71
2023/08/16 04:24:38;;;;;;;3.50;2.93;;;;;;;;;;5098761;28;20209;-70
2023/08/16 04:27:07;;;;;;;5.03;3.00;;;;;;;;;;5099413;28;20204;-70
2023/08/16 04:29:34;;;;;;;3.93;2.80;;;;;;;;;;5098807;28;20656;-71
2023/08/16 04:32:02;;;;;;;2.63;2.43;;;;;;;;;;5096574;28;20209;-70
2023/08/16 04:34:30;;;;;;;4.93;2.80;;;;;;;;;;5098653;28;20244;-70
2023/08/16 04:36:59;;;;;;;5.87;3.00;;;;;;;;;;5099147;28;20206;-70
2023/08/16 04:39:27;;;;;;;4.60;3.20;;;;;;;;;;5098387;28;20295;-70
2023/08/16 04:41:55;;;;;;;4.07;2.67;;;;;;;;;;5097217;28;20332;-70
2023/08/16 04:44:23;;;;;;;3.37;3.07;;;;;;;;;;5096563;28;20219;-70
2023/08/16 04:46:50;;;;;;;2.83;2.63;;;;;;;;;;5096928;28;20213;-70
2023/08/16 04:49:19;;;;;;;4.43;2.90;;;;;;;;;;5098845;28;20204;-69
2023/08/16 04:51:47;;;;;;;4.10;2.67;;;;;;;;;;5096469;28;20238;-69
2023/08/16 04:54:16;;;;;;;3.80;3.03;;;;;;;;;;5094506;28;20232;-69
2023/08/16 04:56:47;;;;;;;3.23;2.77;;;;;;;;;;5094900;28;20204;-69
2023/08/16 04:59:15;;;;;;;5.27;3.23;;;;;;;;;;5095195;28;20332;-69
2023/08/16 05:01:43;;;;;;;6.57;3.10;;;;;;;;;;5098021;28;20228;-69
2023/08/16 05:04:11;;;;;;;3.20;2.90;;;;;;;;;;5098517;28;20270;-68
2023/08/16 05:06:39;;;;;;;4.57;3.30;;;;;;;;;;5098389;28;20239;-69
2023/08/16 05:09:07;;;;;;;6.13;3.30;;;;;;;;;;5099094;28;20209;-69
2023/08/16 05:11:37;;;;;;;4.27;2.97;;;;;;;;;;5098405;28;20222;-68
2023/08/16 05:14:04;;;;;;;3.40;3.10;;;;;;;;;;5098005;28;20214;-69
2023/08/16 05:16:32;;;;;;;5.60;4.00;;;;;;;;;;5099056;28;20204;-69
2023/08/16 05:19:01;;;;;;;4.43;2.67;;;;;;;;;;5098551;28;20201;-69
2023/08/16 05:21:29;;;;;;;5.90;3.20;;;;;;;;;;5097559;28;20224;-69
2023/08/16 05:23:57;;;;;;;4.63;2.93;;;;;;;;;;5094005;28;20205;-69
2023/08/16 05:26:25;;;;;;;4.33;2.90;;;;;;;;;;5098433;28;20202;-68
2023/08/16 05:28:55;;;;;;;3.27;2.87;;;;;;;;;;5099827;28;20211;-69
2023/08/16 05:31:23;;;;;;;3.50;2.80;;;;;;;;;;5098333;28;20225;-70
2023/08/16 05:33:51;;;;;;;7.20;3.00;;;;;;;;;;5098983;28;20262;-68
2023/08/16 05:36:19;;;;;;;5.93;3.17;;;;;;;;;;5097561;28;20302;-70
2023/08/16 05:38:47;;;;;;;3.33;3.03;;;;;;;;;;5098395;28;20679;-70
2023/08/16 05:41:14;;;;;;;4.17;3.43;;;;;;;;;;5092677;28;20586;-70
2023/08/16 05:43:43;;;;;;;7.40;4.13;;;;;;;;;;5099449;28;20235;-68
2023/08/16 05:46:12;;;;;;;6.87;4.13;;;;;;;;;;5098094;28;20233;-68
2023/08/16 05:48:40;;;;;;;8.80;4.93;;;;;;;;;;5100005;28;20200;-68
2023/08/16 05:51:08;;;;;;;6.30;4.70;;;;;;;;;;5096228;28;20232;-69
2023/08/16 05:53:36;;;;;;;7.50;5.20;;;;;;;;;;5097088;28;20619;-68
2023/08/16 05:56:04;;;;;;;10.87;4.77;;;;;;;;;;5098527;28;20212;-70
2023/08/16 05:58:33;;;;;;;7.30;4.70;;;;;;;;;;5096856;28;20657;-69
2023/08/16 06:01:00;;;;;;;8.23;4.70;;;;;;;;;;5097245;28;20227;-68
2023/08/16 06:03:30;;;;;;;6.50;4.37;;;;;;;;;;5098642;28;20294;-69
2023/08/16 06:06:00;;;;;;;7.27;4.30;;;;;;;;;;5098569;28;20210;-69
2023/08/16 06:08:31;;;;;;;5.97;3.80;;;;;;;;;;5098802;28;20642;-69
2023/08/16 06:11:01;;;;;;;6.73;3.80;;;;;;;;;;5098270;28;20238;-70
2023/08/16 06:13:29;;;;;;;6.03;3.70;;;;;;;;;;5096961;28;20287;-69
2023/08/16 06:15:57;;;;;;;3.60;3.17;;;;;;;;;;5098228;28;20287;-70
2023/08/16 06:18:24;;;;;;;8.30;3.10;;;;;;;;;;5098496;28;20294;-69
2023/08/16 06:20:54;;;;;;;5.00;3.53;;;;;;;;;;5098418;28;20261;-69
2023/08/16 06:23:21;;;;;;;5.07;3.30;;;;;;;;;;5098212;28;20280;-70
2023/08/16 06:25:49;;;;;;;7.07;3.57;;;;;;;;;;5098330;28;20214;-70
2023/08/16 06:28:17;;;;;;;6.27;3.30;;;;;;;;;;5097252;28;20257;-70
2023/08/16 06:30:45;;;;;;;5.43;2.93;;;;;;;;;;5097972;28;20285;-69
2023/08/16 06:33:14;;;;;;;4.53;3.07;;;;;;;;;;5095880;28;20259;-69
2023/08/16 06:35:42;;;;;;;3.03;2.83;;;;;;;;;;5097401;28;20215;-69
2023/08/16 06:38:12;;;;;;;3.87;3.03;;;;;;;;;;5095719;28;20199;-70
2023/08/16 06:40:40;;;;;;;5.63;3.00;;;;;;;;;;5088186;28;20221;-71
2023/08/16 06:43:08;;;;;;;5.67;3.43;;;;;;;;;;5085209;28;20734;-71
2023/08/16 06:45:35;;;;;;;4.67;3.03;;;;;;;;;;5095519;28;20202;-71
2023/08/16 06:48:03;;;;;;;4.37;3.07;;;;;;;;;;5094459;28;20251;-71
2023/08/16 06:50:31;;;;;;;5.07;3.10;;;;;;;;;;5096022;28;20221;-71
2023/08/16 06:53:00;;;;;;;8.60;3.20;;;;;;;;;;5096639;28;20288;-71
2023/08/16 06:55:31;;;;;;;4.00;2.95;;;;;;;;;;5096990;28;20263;-71
2023/08/16 06:58:00;;;;;;;4.50;3.50;;;;;;;;;;5096694;28;20202;-71
2023/08/16 07:00:28;;;;;;;5.72;3.88;;;;;;;;;;5097216;28;20280;-70
2023/08/16 07:02:56;;;;;;;5.47;3.67;;;;;;;;;;5096828;28;20207;-71
2023/08/16 07:05:25;;;;;;;5.45;3.42;;;;;;;;;;5097630;28;20563;-70
2023/08/16 07:07:53;;;;;;;5.38;3.83;;;;;;;;;;5095349;28;20201;-70
2023/08/16 07:10:20;;;;;;;5.10;3.50;;;;;;;;;;5095822;28;20241;-65
2023/08/16 07:12:50;;;;;;;8.40;4.10;;;;;;;;;;5096448;28;20587;-67
2023/08/16 07:15:17;;;;;;;5.43;4.18;;;;;;;;;;5096489;28;20681;-68
2023/08/16 07:17:45;;;;;;;6.50;4.15;;;;;;;;;;5095468;28;20272;-68
2023/08/16 07:20:13;;;;;;;4.70;3.60;;;;;;;;;;5097623;28;20287;-68
2023/08/16 07:22:41;;;;;;;4.13;3.38;;;;;;;;;;5095682;28;20222;-68
2023/08/16 07:25:09;;;;;;;3.88;3.22;;;;;;;;;;5097035;28;20221;-68
2023/08/16 07:27:37;;;;;;;5.75;3.47;;;;;;;;;;5095944;28;20209;-68
2023/08/16 07:30:07;;;;;;;4.43;3.20;;;;;;;;;;5087424;28;20634;-68
2023/08/16 07:32:36;;;;;;;5.57;2.97;;;;;;;;;;5095682;28;20213;-68
2023/08/16 07:35:04;;;;;;;4.95;3.25;;;;;;;;;;5097254;28;20201;-68
2023/08/16 07:37:32;;;;;;;3.90;3.25;;;;;;;;;;5095913;28;20206;-68
2023/08/16 07:40:00;;;;;;;6.38;2.90;;;;;;;;;;5093373;28;20226;-68
2023/08/16 07:42:28;;;;;;;3.63;3.08;;;;;;;;;;5091602;28;20236;-67
2023/08/16 07:44:57;;;;;;;7.28;3.10;;;;;;;;;;5096627;28;20207;-68
2023/08/16 07:47:27;;;;;;;4.83;2.90;;;;;;;;;;5094781;28;20222;-67
2023/08/16 07:49:56;;;;;;;4.80;3.47;;;;;;;;;;5097169;28;20234;-68
2023/08/16 07:52:23;;;;;;;6.50;3.10;;;;;;;;;;5094008;28;20224;-68
2023/08/16 07:54:52;;;;;;;3.53;2.70;;;;;;;;;;5096712;28;20217;-68
2023/08/16 07:57:19;;;;;;;6.87;2.93;;;;;;;;;;5095530;28;20202;-67
2023/08/16 07:59:47;;;;;;;4.80;2.90;;;;;;;;;;5096957;28;20267;-68
2023/08/16 08:02:15;;;;;;;4.80;3.27;;;;;;;;;;5097010;28;20216;-68
2023/08/16 08:04:45;;;;;;;3.47;3.17;;;;;;;;;;5098113;28;20206;-68
2023/08/16 08:07:13;;;;;;;5.47;2.97;;;;;;;;;;5101102;28;20209;-68
2023/08/16 08:09:40;;;;;;;4.97;2.87;;;;;;;;;;5100952;28;20218;-68
2023/08/16 08:12:08;;;;;;;6.03;3.27;;;;;;;;;;5100134;28;20249;-68
2023/08/16 08:14:36;;;;;;;5.73;3.93;;;;;;;;;;5100942;28;20203;-68
2023/08/16 08:17:04;;;;;;;6.67;3.10;;;;;;;;;;5100517;28;20201;-69
2023/08/16 08:19:40;;;;;;;6.07;3.03;;;;;;;;;;5101311;28;20297;-67
2023/08/16 08:22:19;;;;;;;4.83;2.83;;;;;;;;;;5100050;28;20256;-67
2023/08/16 08:24:46;;;;;;;3.87;2.73;;;;;;;;;;5100703;28;20290;-68
2023/08/16 08:27:14;;;;;;;3.70;3.27;;;;;;;;;;5100112;28;20206;-68
2023/08/16 08:29:45;;;;;;;5.43;3.30;;;;;;;;;;5100448;28;20274;-68
2023/08/16 08:32:13;;;;;;;4.83;3.37;;;;;;;;;;5100824;28;20654;-68
2023/08/16 08:34:40;;;;;;;6.03;3.43;;;;;;;;;;5098386;28;20289;-68
2023/08/16 08:37:08;;;;;;;4.43;3.53;;;;;;;;;;5099513;28;20207;-67
2023/08/16 08:39:37;;;;;;;6.50;3.63;;;;;;;;;;5099088;28;20210;-66
2023/08/16 08:42:08;;;;;;;4.13;3.37;;;;;;;;;;5096016;28;20216;-69
2023/08/16 08:44:36;;;;;;;5.00;3.28;;;;;;;;;;5100190;28;20209;-68
2023/08/16 08:47:06;;;;;;;5.22;3.22;;;;;;;;;;5098334;28;20207;-69
2023/08/16 08:49:42;;;;;;;4.28;2.95;;;;;;;;;;5099038;28;20652;-67
2023/08/16 08:52:10;;;;;;;4.03;3.05;;;;;;;;;;5097678;28;20310;-68
2023/08/16 08:54:39;;;;;;;4.00;2.83;;;;;;;;;;5098911;28;20214;-69
2023/08/16 08:57:08;;;;;;;3.90;3.10;;;;;;;;;;5097011;28;20566;-68
2023/08/16 08:59:38;;;;;;;6.18;3.40;;;;;;;;;;5096698;28;20223;-66
2023/08/16 09:02:07;;;;;;;5.68;3.33;;;;;;;;;;5089100;28;20198;-68
2023/08/16 09:04:35;;;;;;;4.38;2.85;;;;;;;;;;5090350;28;20637;-68
2023/08/16 09:07:04;;;;;;;9.10;3.30;;;;;;;;;;5094028;28;20209;-68
2023/08/16 09:09:33;;;;;;;4.03;3.17;;;;;;;;;;5089504;28;20292;-68
2023/08/16 09:12:02;;;;;;;4.40;3.40;;;;;;;;;;5088654;28;20197;-68
2023/08/16 09:14:31;;;;;;;4.43;3.20;;;;;;;;;;5089483;28;20227;-68
2023/08/16 09:16:58;;;;;;;6.32;2.90;;;;;;;;;;5091109;28;20209;-68
2023/08/16 09:19:26;;;;;;;3.33;3.03;;;;;;;;;;5096071;28;20193;-68
2023/08/16 09:21:56;;;;;;;4.70;2.92;;;;;;;;;;5092840;28;20250;-68
2023/08/16 09:24:24;;;;;;;2.97;2.65;;;;;;;;;;5096267;28;20211;-68
2023/08/16 09:26:52;;;;;;;5.78;3.03;;;;;;;;;;5093105;28;20625;-68
2023/08/16 09:29:21;;;;;;;5.32;3.30;;;;;;;;;;5098303;28;20204;-68
2023/08/16 09:31:49;;;;;;;3.92;2.63;;;;;;;;;;5097866;28;20333;-68
2023/08/16 09:34:20;;;;;;;4.07;3.08;;;;;;;;;;5098208;28;20231;-69
2023/08/16 09:37:03;;;;;;;5.00;3.25;;;;;;;;;;5097109;28;20298;-69
2023/08/16 09:39:30;;;;;;;5.32;3.30;;;;;;;;;;5099021;28;20205;-69
2023/08/16 09:41:59;;;;;;;3.60;2.78;;;;;;;;;;5089356;28;20240;-69
2023/08/16 09:44:30;;;;;;;3.97;2.60;;;;;;;;;;5098134;28;20224;-68
2023/08/16 09:46:58;;;;;;;5.85;2.65;;;;;;;;;;5097585;28;20211;-68
2023/08/16 09:49:28;;;;;;;3.80;2.75;;;;;;;;;;5091884;28;20209;-69
2023/08/16 09:51:57;;;;;;;3.33;2.72;;;;;;;;;;5092769;28;20213;-69
2023/08/16 09:54:28;;;;;;;5.75;2.72;;;;;;;;;;5096955;28;20236;-68
2023/08/16 09:56:56;;;;;;;5.88;3.03;;;;;;;;;;5098659;28;20201;-68
2023/08/16 09:59:27;;;;;;;3.75;2.78;;;;;;;;;;5092051;28;20650;-67
2023/08/16 10:02:00;;;;;;;6.88;3.88;;;;;;;;;;5093052;28;20255;-68
2023/08/16 10:04:31;;;;;;;7.15;3.58;;;;;;;;;;5094468;28;20204;-67
2023/08/16 10:07:01;;;;;;;3.78;2.83;;;;;;;;;;5095514;28;20212;-66
2023/08/16 10:09:33;;;;;;;4.75;3.22;;;;;;;;;;5097566;28;20210;-67
2023/08/16 10:12:01;;;;;;;3.40;2.92;;;;;;;;;;5097452;28;20197;-68
2023/08/16 10:14:30;;;;;;;4.90;2.70;;;;;;;;;;5098009;28;20243;-69
2023/08/16 10:17:03;;;;;;;4.03;2.55;;;;;;;;;;5097838;28;20231;-67
2023/08/16 10:19:32;;;;;;;3.88;2.83;;;;;;;;;;5098399;28;20273;-67
2023/08/16 10:22:00;;;;;;;3.97;3.10;;;;;;;;;;5098305;28;20215;-69
2023/08/16 10:24:30;;;;;;;3.35;3.03;;;;;;;;;;5097647;28;20229;-67
2023/08/16 10:27:17;;;;;;;5.82;3.00;;;;;;;;;;5095847;28;20613;-67
2023/08/16 10:29:46;;;;;;;3.30;3.00;;;;;;;;;;5096319;28;20683;-69
2023/08/16 10:32:16;;;;;;;4.97;3.28;;;;;;;;;;5096660;28;20280;-69
2023/08/16 10:34:44;;;;;;;3.88;3.38;;;;;;;;;;5096370;28;20225;-67
2023/08/16 10:37:13;;;;;;;4.95;2.55;;;;;;;;;;5096755;28;20232;-69
2023/08/16 10:39:48;;;;;;;3.58;2.70;;;;;;;;;;5095917;28;20276;-69
2023/08/16 10:42:38;;;;;;;5.85;2.70;;;;;;;;;;5097080;28;20205;-67
2023/08/16 10:45:07;;;;;;;4.93;3.60;;;;;;;;;;5096981;28;20645;-69
2023/08/16 10:47:37;;;;;;;3.85;2.60;;;;;;;;;;5096751;28;20205;-68
2023/08/16 10:50:05;;;;;;;5.22;2.70;;;;;;;;;;5096357;28;20233;-68
2023/08/16 10:52:33;;;;;;;4.38;2.25;;;;;;;;;;5094353;28;20197;-68
2023/08/16 10:55:01;;;;;;;3.10;2.38;;;;;;;;;;5096755;28;20224;-69
2023/08/16 10:57:29;;;;;;;3.90;2.17;;;;;;;;;;5096553;28;20231;-67
2023/08/16 11:00:05;;;;;;;2.75;2.35;;;;;;;;;;5092239;28;20268;-69
2023/08/16 11:02:34;;;;;;;4.07;2.30;;;;;;;;;;5097307;28;20702;-68
2023/08/16 11:05:04;;;;;;;39.90;33.42;;;;;;;;;;5096241;28;20204;-68
2023/08/16 11:07:31;;;;;;;5.57;3.97;;;;;;;;;;5096879;28;20590;-68
2023/08/16 11:10:00;;;;;;;3.30;2.58;;;;;;;;;;5096146;28;20700;-69
2023/08/16 11:12:31;;;;;;;2.50;2.30;;;;;;;;;;5089517;28;20820;-67
2023/08/16 11:14:59;;;;;;;2.33;1.70;;;;;;;;;;5085618;28;20265;-66
2023/08/16 11:17:27;;;;;;;3.88;2.10;;;;;;;;;;5086961;28;20205;-67
2023/08/16 11:19:56;;;;;;;2.80;2.13;;;;;;;;;;5085603;28;20221;-65
2023/08/16 11:22:26;;;;;;;4.13;2.22;;;;;;;;;;5086167;28;20588;-67
2023/08/16 11:24:56;;;;;;;2.30;2.10;;;;;;;;;;5086354;28;20604;-66
2023/08/16 11:27:24;;;;;;;2.67;1.80;;;;;;;;;;5089852;28;20201;-67
2023/08/16 11:29:52;;;;;;;5.43;2.05;;;;;;;;;;5087788;28;20680;-67
2023/08/16 11:32:31;;;;;;;2.90;2.08;;;;;;;;;;5097015;28;20668;-66
2023/08/16 11:34:58;;;;;;;3.97;2.17;;;;;;;;;;5092737;28;20304;-66
2023/08/16 11:37:28;;;;;;;2.85;2.50;;;;;;;;;;5084515;28;20223;-66
2023/08/16 11:39:59;;;;;;;1.98;1.80;;;;;;;;;;5086435;28;20312;-65
2023/08/16 11:42:28;;;;;;;3.60;2.30;;;;;;;;;;5092596;28;20202;-67
2023/08/16 11:44:56;;;;;;;2.40;2.13;;;;;;;;;;5094100;28;20212;-66
2023/08/16 11:47:24;;;;;;;4.30;1.88;;;;;;;;;;5098045;28;20696;-67
2023/08/16 11:49:52;;;;;;;2.30;2.10;;;;;;;;;;5089496;28;20276;-66
2023/08/16 11:52:20;;;;;;;2.03;1.92;;;;;;;;;;5088850;28;20201;-67
2023/08/16 11:55:00;;;;;;;2.65;2.00;;;;;;;;;;5091305;28;20693;-66
2023/08/16 11:57:29;;;;;;;2.83;1.88;;;;;;;;;;5092227;28;20247;-65
2023/08/16 11:59:57;;;;;;;6.13;2.08;;;;;;;;;;5094330;28;20241;-65
2023/08/16 12:02:25;;;;;;;7.38;2.50;;;;;;;;;;5100351;28;20228;-66
2023/08/16 12:04:53;;;;;;;2.25;2.05;;;;;;;;;;5094927;28;20205;-65
2023/08/16 12:07:21;;;;;;;5.05;2.25;;;;;;;;;;5094687;28;20197;-66
2023/08/16 12:09:50;;;;;;;2.72;2.53;;;;;;;;;;5094527;28;20555;-66
2023/08/16 12:12:19;;;;;;;3.15;2.00;;;;;;;;;;5100487;28;20204;-65
2023/08/16 12:14:47;;;;;;;3.58;2.00;;;;;;;;;;5100479;28;20236;-66
2023/08/16 12:17:15;;;;;;;2.85;2.22;;;;;;;;;;5099984;28;20233;-66
2023/08/16 12:19:42;;;;;;;2.08;1.80;;;;;;;;;;5100296;28;20614;-66
2023/08/16 12:22:10;;;;;;;3.97;2.17;;;;;;;;;;5100189;28;20208;-65
2023/08/16 12:24:38;;;;;;;4.22;2.45;;;;;;;;;;5101058;28;20284;-66
2023/08/16 12:27:07;;;;;;;2.25;1.85;;;;;;;;;;5093377;28;20219;-65
2023/08/16 12:29:35;;;;;;;2.70;2.28;;;;;;;;;;5093259;28;20212;-64
2023/08/16 12:32:03;;;;;;;2.33;2.13;;;;;;;;;;5087862;28;20201;-65
2023/08/16 12:34:31;;;;;;;5.20;2.17;;;;;;;;;;5093325;28;20225;-66
2023/08/16 12:36:59;;;;;;;3.00;2.25;;;;;;;;;;5090887;28;20217;-65
2023/08/16 12:39:27;;;;;;;3.03;2.05;;;;;;;;;;5098299;28;20198;-65
2023/08/16 12:41:59;;;;;;;6.28;2.10;;;;;;;;;;5094243;28;20662;-70
2023/08/16 12:44:29;;;;;;;4.50;2.47;;;;;;;;;;5090951;28;20428;-68
2023/08/16 12:46:57;;;;;;;3.10;2.03;;;;;;;;;;5096681;28;20201;-67
2023/08/16 12:49:25;;;;;;;2.90;1.75;;;;;;;;;;5098075;28;20360;-70
2023/08/16 12:51:52;;;;;;;2.53;2.05;;;;;;;;;;5098481;28;20228;-69
2023/08/16 12:54:20;;;;;;;2.72;2.22;;;;;;;;;;5098784;28;20228;-70
2023/08/16 12:56:48;;;;;;;2.95;2.20;;;;;;;;;;5098634;28;20209;-70
2023/08/16 12:59:16;;;;;;;3.28;2.10;;;;;;;;;;5095185;28;20288;-70
2023/08/16 13:01:47;;;;;;;2.67;2.30;;;;;;;;;;5097550;28;20233;-70
2023/08/16 13:04:29;;;;;;;2.40;2.17;;;;;;;;;;5095798;28;20201;-70
2023/08/16 13:07:02;;;;;;;2.40;1.80;;;;;;;;;;5099383;28;20213;-65
2023/08/16 13:09:33;;;;;;;3.95;2.00;;;;;;;;;;5098105;28;20644;-65
2023/08/16 13:12:14;;;;;;;2.30;2.10;;;;;;;;;;5097254;28;20204;-67
2023/08/16 13:14:59;;;;;;;3.13;2.15;;;;;;;;;;5092814;28;20214;-67
2023/08/16 13:17:31;;;;;;;3.10;2.17;;;;;;;;;;5098641;28;20232;-67
2023/08/16 13:20:03;;;;;;;3.20;2.47;;;;;;;;;;5089335;28;20240;-67
2023/08/16 13:22:32;;;;;;;2.80;1.88;;;;;;;;;;5096841;28;20201;-67
2023/08/16 13:25:06;;;;;;;2.28;1.95;;;;;;;;;;5098446;28;20257;-65
2023/08/16 13:27:36;;;;;;;2.55;2.10;;;;;;;;;;5098128;28;20201;-65
2023/08/16 13:30:09;;;;;;;2.97;1.92;;;;;;;;;;5097528;28;20311;-65
2023/08/16 13:32:58;;;;;;;4.40;2.00;;;;;;;;;;5097205;28;20265;-65
2023/08/16 13:35:32;;;;;;;2.78;1.85;;;;;;;;;;5097358;28;20220;-66
2023/08/16 13:38:15;;;;;;;2.40;2.20;;;;;;;;;;5099167;28;20258;-66
2023/08/16 13:40:48;;;;;;;2.67;1.92;;;;;;;;;;5097419;28;20217;-66
2023/08/16 13:43:18;;;;;;;4.10;2.30;;;;;;;;;;5098016;28;20197;-66
2023/08/16 13:45:52;;;;;;;2.83;2.53;;;;;;;;;;5097369;28;20212;-66
2023/08/16 13:48:21;;;;;;;2.80;2.22;;;;;;;;;;5098756;28;20567;-67
2023/08/16 13:50:49;;;;;;;4.07;2.00;;;;;;;;;;5098033;28;20229;-67
2023/08/16 13:53:17;;;;;;;2.28;1.90;;;;;;;;;;5096104;28;20232;-67
2023/08/16 13:55:45;;;;;;;2.08;1.90;;;;;;;;;;5098708;28;20586;-66
2023/08/16 13:58:13;;;;;;;2.33;1.65;;;;;;;;;;5098813;28;20213;-66
2023/08/16 14:00:40;;;;;;;2.75;2.20;;;;;;;;;;5092948;28;20675;-66
2023/08/16 14:03:08;;;;;;;3.38;2.20;;;;;;;;;;5098081;28;20228;-65
2023/08/16 14:05:37;;;;;;;2.33;1.85;;;;;;;;;;5098364;28;20244;-65
2023/08/16 14:08:09;;;;;;;2.33;1.88;;;;;;;;;;5097787;28;20206;-65
2023/08/16 14:10:37;;;;;;;5.65;1.92;;;;;;;;;;5097450;28;20220;-65
2023/08/16 14:13:05;;;;;;;3.28;2.35;;;;;;;;;;5098501;28;20262;-65
2023/08/16 14:15:33;;;;;;;2.72;2.13;;;;;;;;;;5097110;28;20257;-67
2023/08/16 14:18:01;;;;;;;1.98;1.75;;;;;;;;;;5098610;28;20593;-66
2023/08/16 14:20:29;;;;;;;2.90;1.73;;;;;;;;;;5096574;28;20229;-66
2023/08/16 14:22:58;;;;;;;4.05;1.90;;;;;;;;;;5096871;28;20202;-66
2023/08/16 14:25:28;;;;;;;2.97;1.80;;;;;;;;;;5097000;28;20266;-66
2023/08/16 14:27:55;;;;;;;2.40;2.20;;;;;;;;;;5097559;28;20577;-65
2023/08/16 14:30:23;;;;;;;3.28;1.80;;;;;;;;;;5096924;28;20323;-65
2023/08/16 14:32:51;;;;;;;2.05;1.95;;;;;;;;;;5097935;28;20209;-66
2023/08/16 14:35:19;;;;;;;2.28;2.08;;;;;;;;;;5096985;28;20316;-65
2023/08/16 14:37:46;;;;;;;3.28;1.90;;;;;;;;;;5093430;28;20259;-65
2023/08/16 14:40:19;;;;;;;3.25;2.13;;;;;;;;;;5097669;28;20221;-64
2023/08/16 14:42:57;;;;;;;2.45;1.80;;;;;;;;;;5096889;28;20201;-68
2023/08/16 14:45:26;;;;;;;2.75;2.08;;;;;;;;;;5097155;28;20193;-67
2023/08/16 14:47:54;;;;;;;5.70;2.10;;;;;;;;;;5098233;28;20209;-68
2023/08/16 14:50:22;;;;;;;3.92;1.60;;;;;;;;;;5096814;28;20217;-68
2023/08/16 14:52:50;;;;;;;4.55;2.30;;;;;;;;;;5096231;28;20201;-69
2023/08/16 14:55:20;;;;;;;2.13;1.73;;;;;;;;;;5097223;28;20266;-70